Time;durP1;ratioP1;P1;durP2;ratioP2;P2;SDS_P1;SDS_P2;PMS_P1;PMS_P2;Temp;Humidity;BMP_temperature;BMP_pressure;BME280_temperature;BME280_humidity;BME280_pressure;Samples;Min_cycle;Max_cycle;Signal;HPM_P1;HPM_P2
2023/09/30 00:01:21;;;;;;;12.77;7.10;;;23.10;59.60;;;;;;5070810;28;20442;-66
2023/09/30 00:03:47;;;;;;;11.00;6.73;;;23.10;59.60;;;;;;5070654;28;20956;-67
2023/09/30 00:06:13;;;;;;;10.63;6.80;;;23.10;59.70;;;;;;5070781;28;20499;-67
2023/09/30 00:08:39;;;;;;;11.23;7.77;;;23.10;59.60;;;;;;5070785;28;20174;-66
2023/09/30 00:11:05;;;;;;;13.13;7.43;;;23.10;59.60;;;;;;5070874;28;20637;-66
2023/09/30 00:13:31;;;;;;;12.33;7.80;;;23.10;59.60;;;;;;5070539;28;20424;-68
2023/09/30 00:15:57;;;;;;;12.20;7.90;;;23.10;59.60;;;;;;5070621;28;20416;-67
2023/09/30 00:18:23;;;;;;;13.90;7.50;;;23.10;59.60;;;;;;5070741;28;20421;-67
2023/09/30 00:20:49;;;;;;;13.33;7.80;;;23.20;59.70;;;;;;5070421;28;20466;-67
2023/09/30 00:23:14;;;;;;;13.63;7.83;;;23.10;59.60;;;;;;5070446;28;20210;-67
2023/09/30 00:25:40;;;;;;;14.73;7.80;;;23.10;59.60;;;;;;5070474;28;20182;-67
2023/09/30 00:28:06;;;;;;;12.63;8.27;;;23.10;59.60;;;;;;5070538;28;20182;-67
2023/09/30 00:30:31;;;;;;;10.57;7.60;;;23.20;59.70;;;;;;5070386;28;20289;-66
2023/09/30 00:32:57;;;;;;;14.60;7.60;;;23.10;59.60;;;;;;5070445;28;20570;-66
2023/09/30 00:35:22;;;;;;;13.10;8.70;;;23.10;59.60;;;;;;5070686;28;20174;-67
2023/09/30 00:37:48;;;;;;;12.70;7.60;;;23.10;60.20;;;;;;5070450;28;20177;-67
2023/09/30 00:40:14;;;;;;;11.23;6.77;;;23.10;59.60;;;;;;5070355;28;20189;-66
2023/09/30 00:42:40;;;;;;;13.57;8.43;;;23.10;59.60;;;;;;5070366;28;20186;-67
2023/09/30 00:45:09;;;;;;;12.77;6.63;;;23.10;59.60;;;;;;5070391;28;20174;-68
2023/09/30 00:47:35;;;;;;;12.30;7.07;;;23.10;59.60;;;;;;5070352;28;20420;-66
2023/09/30 00:50:03;;;;;;;12.50;7.37;;;23.10;59.70;;;;;;5070352;28;20452;-67
2023/09/30 00:52:31;;;;;;;11.87;6.80;;;23.10;59.60;;;;;;5070273;28;20413;-67
2023/09/30 00:54:58;;;;;;;12.60;7.53;;;23.20;59.70;;;;;;5070228;28;20416;-66
2023/09/30 00:57:25;;;;;;;11.77;7.70;;;23.10;59.60;;;;;;5070220;28;20491;-65
2023/09/30 00:59:51;;;;;;;11.47;7.30;;;23.10;59.60;;;;;;5073018;28;20457;-67
2023/09/30 01:02:18;;;;;;;13.40;7.30;;;23.20;59.70;;;;;;5073894;28;20542;-66
2023/09/30 01:04:44;;;;;;;11.17;6.97;;;23.10;59.60;;;;;;5074225;28;20421;-66
2023/09/30 01:07:11;;;;;;;13.43;7.80;;;23.10;59.60;;;;;;5073847;28;20871;-66
2023/09/30 01:09:37;;;;;;;12.23;7.67;;;23.20;59.70;;;;;;5073762;28;20452;-66
2023/09/30 01:12:03;;;;;;;12.20;6.97;;;23.10;59.60;;;;;;5073827;28;20409;-67
2023/09/30 01:14:40;;;;;;;13.70;7.30;;;23.20;59.70;;;;;;5073876;28;20428;-66
2023/09/30 01:17:09;;;;;;;12.90;7.87;;;23.20;59.70;;;;;;5073982;28;20773;-66
2023/09/30 01:19:35;;;;;;;14.50;7.40;;;23.20;59.70;;;;;;5073553;28;20431;-65
2023/09/30 01:22:05;;;;;;;13.40;7.87;;;23.10;59.60;;;;;;5073609;28;20401;-66
2023/09/30 01:24:31;;;;;;;11.50;7.07;;;23.20;59.70;;;;;;5073469;28;20435;-66
2023/09/30 01:26:57;;;;;;;13.73;8.07;;;23.20;59.70;;;;;;5073808;28;20421;-66
2023/09/30 01:29:24;;;;;;;12.30;7.33;;;23.10;59.60;;;;;;5073428;28;20613;-66
2023/09/30 01:31:50;;;;;;;13.20;8.17;;;23.10;59.60;;;;;;5073554;28;20193;-67
2023/09/30 01:34:16;;;;;;;11.63;7.50;;;23.20;59.70;;;;;;5073316;28;20471;-66
2023/09/30 01:36:43;;;;;;;11.53;6.60;;;23.20;60.30;;;;;;5073343;28;20692;-66
2023/09/30 01:39:10;;;;;;;10.67;6.83;;;23.10;59.60;;;;;;5073246;28;20412;-66
2023/09/30 01:41:39;;;;;;;12.27;7.47;;;23.20;59.70;;;;;;5073267;28;20417;-66
2023/09/30 01:44:06;;;;;;;13.33;6.93;;;23.10;59.60;;;;;;5072982;28;20946;-68
2023/09/30 01:46:31;;;;;;;12.10;6.83;;;23.10;59.60;;;;;;5073028;28;20415;-66
2023/09/30 01:48:57;;;;;;;10.57;6.10;;;23.20;59.70;;;;;;5073392;28;20413;-66
2023/09/30 01:51:23;;;;;;;10.97;6.30;;;23.20;59.70;;;;;;5072985;28;20202;-65
2023/09/30 01:53:49;;;;;;;13.10;6.93;;;23.20;59.70;;;;;;5072888;28;20289;-67
2023/09/30 01:56:14;;;;;;;8.00;5.07;;;23.10;59.60;;;;;;5072987;28;20847;-66
2023/09/30 01:58:40;;;;;;;9.00;6.10;;;23.20;59.70;;;;;;5072875;28;20206;-66
2023/09/30 02:01:06;;;;;;;9.57;6.40;;;23.20;59.70;;;;;;5072818;28;20182;-66
2023/09/30 02:03:32;;;;;;;9.07;5.83;;;23.20;59.80;;;;;;5072998;28;20202;-66
2023/09/30 02:05:58;;;;;;;11.30;6.63;;;23.10;59.70;;;;;;5072738;28;20174;-66
2023/09/30 02:08:24;;;;;;;11.30;6.43;;;23.20;59.70;;;;;;5072661;28;20417;-67
2023/09/30 02:10:51;;;;;;;9.80;5.97;;;23.20;59.80;;;;;;5072412;28;20198;-67
2023/09/30 02:13:17;;;;;;;8.07;5.67;;;23.20;59.80;;;;;;5072539;28;20440;-67
2023/09/30 02:15:43;;;;;;;11.50;5.57;;;23.20;59.80;;;;;;5072518;28;20986;-67
2023/09/30 02:18:09;;;;;;;7.20;4.80;;;23.20;59.80;;;;;;5072532;28;20404;-67
2023/09/30 02:20:39;;;;;;;7.40;4.73;;;23.20;60.40;;;;;;5072302;28;20948;-67
2023/09/30 02:23:05;;;;;;;10.90;5.77;;;23.20;59.80;;;;;;5072767;28;21005;-66
2023/09/30 02:25:32;;;;;;;10.47;5.83;;;23.20;59.80;;;;;;5072696;28;20448;-65
2023/09/30 02:27:58;;;;;;;10.80;5.90;;;23.20;59.80;;;;;;5072340;28;20448;-66
2023/09/30 02:30:24;;;;;;;8.23;5.00;;;23.20;59.80;;;;;;5072217;28;20519;-66
2023/09/30 02:32:50;;;;;;;10.37;5.10;;;23.20;59.80;;;;;;5072246;28;20190;-66
2023/09/30 02:35:15;;;;;;;8.77;5.30;;;23.20;59.80;;;;;;5072302;28;20976;-66
2023/09/30 02:37:41;;;;;;;7.13;4.90;;;23.10;59.70;;;;;;5072442;28;20171;-66
2023/09/30 02:40:10;;;;;;;6.97;4.53;;;23.20;59.80;;;;;;5072084;28;20685;-67
2023/09/30 02:42:37;;;;;;;9.67;4.73;;;23.10;59.70;;;;;;5072065;28;20432;-67
2023/09/30 02:45:04;;;;;;;7.73;5.30;;;23.10;59.70;;;;;;5072000;28;20423;-67
2023/09/30 02:47:31;;;;;;;7.43;4.33;;;23.10;59.70;;;;;;5071994;28;20420;-66
2023/09/30 02:49:57;;;;;;;9.47;4.77;;;23.10;59.60;;;;;;5071844;28;20472;-66
2023/09/30 02:52:24;;;;;;;7.70;5.10;;;23.10;59.60;;;;;;5071721;28;20434;-67
2023/09/30 02:54:50;;;;;;;6.97;4.57;;;23.10;59.60;;;;;;5071737;28;20905;-67
2023/09/30 02:57:15;;;;;;;7.33;4.83;;;23.20;59.70;;;;;;5071711;28;20423;-66
2023/09/30 02:59:42;;;;;;;6.80;3.83;;;23.20;59.70;;;;;;5071690;28;20631;-66
2023/09/30 03:02:07;;;;;;;7.47;4.40;;;23.10;59.60;;;;;;5071628;28;20185;-67
2023/09/30 03:04:33;;;;;;;7.30;4.03;;;23.20;59.70;;;;;;5071450;28;20440;-66
2023/09/30 03:06:59;;;;;;;6.37;3.90;;;23.10;59.60;;;;;;5071544;28;20211;-66
2023/09/30 03:09:26;;;;;;;9.00;4.50;;;23.10;59.60;;;;;;5071443;28;20781;-67
2023/09/30 03:11:51;;;;;;;7.70;4.00;;;23.10;59.60;;;;;;5071561;28;20484;-65
2023/09/30 03:14:17;;;;;;;6.07;3.37;;;23.20;59.70;;;;;;5071258;28;20532;-65
2023/09/30 03:16:44;;;;;;;5.50;3.10;;;23.10;59.60;;;;;;5071428;28;20224;-67
2023/09/30 03:19:11;;;;;;;4.90;3.43;;;23.10;59.60;;;;;;5071590;28;20177;-67
2023/09/30 03:21:37;;;;;;;6.40;3.27;;;23.10;59.60;;;;;;5070672;28;20437;-66
2023/09/30 03:24:07;;;;;;;6.53;3.60;;;23.10;59.60;;;;;;5071229;28;20510;-66
2023/09/30 03:26:34;;;;;;;6.60;3.80;;;23.10;59.60;;;;;;5071262;28;20163;-66
2023/09/30 03:28:59;;;;;;;5.10;3.00;;;23.10;59.60;;;;;;5071232;28;20412;-69
2023/09/30 03:31:25;;;;;;;4.20;2.93;;;23.10;59.60;;;;;;5071179;28;20456;-67
2023/09/30 03:33:53;;;;;;;5.27;2.90;;;23.10;59.60;;;;;;5071045;28;20193;-67
2023/09/30 03:36:20;;;;;;;5.50;3.50;;;23.10;59.60;;;;;;5071028;28;20258;-68
2023/09/30 03:38:46;;;;;;;5.37;2.57;;;23.10;59.60;;;;;;5071052;28;20401;-67
2023/09/30 03:41:13;;;;;;;4.67;3.37;;;23.10;59.60;;;;;;5070990;28;20451;-68
2023/09/30 03:43:41;;;;;;;4.37;2.97;;;23.10;59.60;;;;;;5070906;28;20549;-68
2023/09/30 03:46:11;;;;;;;4.67;2.57;;;23.10;59.60;;;;;;5070982;28;20415;-67
2023/09/30 03:48:39;;;;;;;4.50;2.70;;;23.10;59.60;;;;;;5071025;28;20400;-68
2023/09/30 03:51:14;;;;;;;4.37;2.67;;;23.10;59.60;;;;;;5070868;28;20457;-68
2023/09/30 03:53:46;;;;;;;4.93;2.70;;;23.10;59.60;;;;;;5070810;28;20424;-68
2023/09/30 03:56:13;;;;;;;5.20;2.50;;;23.10;59.60;;;;;;5071126;28;20393;-67
2023/09/30 03:58:42;;;;;;;6.80;3.00;;;23.10;59.60;;;;;;5070773;28;20462;-68
2023/09/30 04:01:11;;;;;;;3.60;2.60;;;23.10;59.60;;;;;;5070753;28;20417;-68
2023/09/30 04:03:39;;;;;;;4.77;3.00;;;23.10;59.60;;;;;;5070837;28;20432;-67
2023/09/30 04:06:05;;;;;;;3.23;2.20;;;23.10;59.60;;;;;;5070850;28;20409;-67
2023/09/30 04:08:33;;;;;;;3.23;2.20;;;23.10;59.60;;;;;;5070868;28;20491;-67
2023/09/30 04:10:59;;;;;;;3.13;2.40;;;23.10;59.60;;;;;;5071238;28;20456;-66
2023/09/30 04:13:25;;;;;;;3.93;2.60;;;23.10;59.60;;;;;;5070932;28;20805;-66
2023/09/30 04:15:50;;;;;;;4.97;2.50;;;23.10;59.60;;;;;;5069447;28;20413;-66
2023/09/30 04:18:16;;;;;;;5.97;3.03;;;23.10;59.60;;;;;;5072845;28;20180;-67
2023/09/30 04:20:42;;;;;;;3.53;2.67;;;23.10;59.60;;;;;;5090823;28;20284;-66
2023/09/30 04:23:09;;;;;;;3.00;2.20;;;23.10;59.60;;;;;;5090777;28;20684;-67
2023/09/30 04:25:35;;;;;;;3.67;2.13;;;23.10;59.60;;;;;;5090837;28;20169;-67
2023/09/30 04:28:02;;;;;;;4.00;2.37;;;23.10;59.60;;;;;;5090763;28;20425;-67
2023/09/30 04:30:29;;;;;;;2.90;2.20;;;23.10;59.60;;;;;;5089282;28;20455;-66
2023/09/30 04:32:54;;;;;;;4.63;2.30;;;23.10;59.60;;;;;;5090572;28;20438;-65
2023/09/30 04:35:20;;;;;;;4.67;2.63;;;23.10;59.60;;;;;;5094465;28;20408;-66
2023/09/30 04:37:46;;;;;;;4.40;2.83;;;23.10;59.60;;;;;;5094692;28;20669;-67
2023/09/30 04:40:15;;;;;;;4.47;2.83;;;23.10;59.60;;;;;;5094673;28;20408;-67
2023/09/30 04:42:43;;;;;;;4.40;3.10;;;23.10;60.10;;;;;;5094531;28;20189;-66
2023/09/30 04:45:10;;;;;;;3.77;2.57;;;23.10;59.60;;;;;;5094821;28;20774;-66
2023/09/30 04:47:38;;;;;;;4.27;2.50;;;23.10;59.60;;;;;;5094576;28;20419;-65
2023/09/30 04:50:07;;;;;;;4.10;2.83;;;23.10;59.50;;;;;;5094432;28;20954;-66
2023/09/30 04:52:33;;;;;;;3.73;2.37;;;23.10;59.50;;;;;;5094428;28;20827;-66
2023/09/30 04:54:59;;;;;;;4.40;2.70;;;23.10;59.50;;;;;;5094379;28;20438;-67
2023/09/30 04:57:26;;;;;;;4.73;2.30;;;23.10;59.50;;;;;;5094344;28;20484;-66
2023/09/30 04:59:52;;;;;;;2.73;2.17;;;23.10;59.60;;;;;;5094312;28;20415;-67
2023/09/30 05:02:17;;;;;;;4.47;2.17;;;23.10;59.50;;;;;;5094127;28;20789;-67
2023/09/30 05:04:43;;;;;;;3.30;2.23;;;23.10;59.50;;;;;;5094201;28;20750;-66
2023/09/30 05:07:09;;;;;;;2.93;2.20;;;23.10;59.50;;;;;;5094102;28;20177;-67
2023/09/30 05:09:34;;;;;;;3.60;2.43;;;23.10;59.50;;;;;;5094026;28;20228;-67
2023/09/30 05:12:00;;;;;;;3.70;2.23;;;23.10;59.50;;;;;;5094083;28;20177;-67
2023/09/30 05:14:27;;;;;;;3.17;1.97;;;23.10;59.50;;;;;;5093931;28;20246;-66
2023/09/30 05:16:53;;;;;;;2.93;2.00;;;23.10;59.50;;;;;;5093890;28;20173;-66
2023/09/30 05:19:20;;;;;;;2.80;2.00;;;23.10;59.50;;;;;;5093845;28;20403;-66
2023/09/30 05:21:47;;;;;;;4.00;2.40;;;23.10;59.50;;;;;;5092560;28;20173;-65
2023/09/30 05:24:12;;;;;;;2.80;2.00;;;23.10;59.50;;;;;;5093740;28;20453;-66
2023/09/30 05:26:38;;;;;;;2.93;1.63;;;23.10;59.50;;;;;;5093714;28;20400;-66
2023/09/30 05:29:03;;;;;;;3.40;2.50;;;23.10;59.50;;;;;;5093655;28;20638;-66
2023/09/30 05:31:29;;;;;;;2.67;2.03;;;23.10;59.50;;;;;;5093658;28;20246;-66
2023/09/30 05:33:55;;;;;;;3.17;2.10;;;23.10;59.50;;;;;;5093596;28;20261;-66
2023/09/30 05:36:21;;;;;;;3.20;2.67;;;23.10;59.50;;;;;;5093491;28;20185;-67
2023/09/30 05:38:47;;;;;;;3.30;2.00;;;23.10;59.50;;;;;;5093759;28;20176;-67
2023/09/30 05:41:14;;;;;;;3.73;2.00;;;23.10;59.50;;;;;;5093488;28;20955;-66
2023/09/30 05:43:43;;;;;;;3.13;2.27;;;23.10;59.50;;;;;;5093380;28;20927;-67
2023/09/30 05:46:09;;;;;;;2.90;1.73;;;23.10;59.50;;;;;;5092804;28;20418;-68
2023/09/30 05:48:34;;;;;;;2.63;2.37;;;23.10;60.00;;;;;;5093303;28;20487;-66
2023/09/30 05:51:01;;;;;;;3.30;2.10;;;23.10;59.50;;;;;;5093162;28;20209;-67
2023/09/30 05:53:28;;;;;;;2.70;1.77;;;23.10;59.50;;;;;;5093466;28;20276;-66
2023/09/30 05:55:53;;;;;;;2.90;2.00;;;23.10;59.50;;;;;;5093283;28;20404;-67
2023/09/30 05:58:19;;;;;;;2.70;2.10;;;23.10;59.50;;;;;;5093220;28;21332;-67
2023/09/30 06:00:44;;;;;;;3.00;2.27;;;23.10;59.40;;;;;;5093088;28;20545;-67
2023/09/30 06:03:13;;;;;;;2.60;2.00;;;23.10;59.50;;;;;;5093075;28;20217;-66
2023/09/30 06:05:40;;;;;;;2.90;1.83;;;23.10;59.40;;;;;;5093058;28;20245;-68
2023/09/30 06:08:10;;;;;;;2.60;1.80;;;23.10;59.40;;;;;;5092992;28;20935;-65
2023/09/30 06:10:37;;;;;;;2.57;2.37;;;23.10;59.40;;;;;;5092862;28;20448;-67
2023/09/30 06:13:03;;;;;;;3.07;1.90;;;23.10;59.40;;;;;;5092925;28;20839;-67
2023/09/30 06:15:29;;;;;;;3.37;2.17;;;23.10;59.40;;;;;;5093120;28;20438;-66
2023/09/30 06:17:59;;;;;;;3.13;1.93;;;23.10;59.40;;;;;;5092789;28;20319;-65
2023/09/30 06:20:26;;;;;;;2.20;1.50;;;23.10;59.40;;;;;;5092836;28;20590;-65
2023/09/30 06:22:53;;;;;;;2.90;1.73;;;23.10;59.40;;;;;;5092597;28;21008;-66
2023/09/30 06:25:20;;;;;;;2.87;1.60;;;23.10;59.40;;;;;;5092690;28;20795;-66
2023/09/30 06:27:47;;;;;;;3.60;2.20;;;23.10;59.30;;;;;;5092585;28;20418;-65
2023/09/30 06:30:13;;;;;;;3.27;1.90;;;23.10;59.40;;;;;;5092707;28;20455;-66
2023/09/30 06:32:40;;;;;;;3.23;2.13;;;23.10;59.40;;;;;;5092427;28;20831;-66
2023/09/30 06:35:06;;;;;;;3.43;2.40;;;23.10;59.40;;;;;;5092671;28;20411;-66
2023/09/30 06:37:32;;;;;;;3.50;1.93;;;23.10;59.30;;;;;;5092547;28;20490;-66
2023/09/30 06:39:58;;;;;;;2.37;1.77;;;23.10;59.30;;;;;;5092317;28;20407;-66
2023/09/30 06:42:24;;;;;;;3.00;1.87;;;23.10;59.30;;;;;;5092209;28;20415;-67
2023/09/30 06:44:50;;;;;;;3.47;1.97;;;23.10;59.30;;;;;;5092262;28;20208;-66
2023/09/30 06:47:16;;;;;;;3.33;2.13;;;23.10;59.30;;;;;;5092153;28;20947;-66
2023/09/30 06:49:42;;;;;;;2.63;1.70;;;23.10;59.40;;;;;;5092096;28;20189;-66
2023/09/30 06:52:07;;;;;;;2.80;1.70;;;23.10;59.30;;;;;;5090839;28;20269;-68
2023/09/30 06:54:33;;;;;;;2.93;2.20;;;23.10;59.40;;;;;;5092038;28;20200;-66
2023/09/30 06:57:03;;;;;;;2.93;2.23;;;23.10;59.40;;;;;;5091190;28;20166;-66
2023/09/30 06:59:29;;;;;;;3.07;2.03;;;23.10;59.30;;;;;;5092261;28;20414;-66
2023/09/30 07:01:54;;;;;;;3.83;2.00;;;23.10;59.40;;;;;;5091893;28;20899;-65
2023/09/30 07:04:21;;;;;;;2.20;1.60;;;23.10;59.30;;;;;;5091803;28;20203;-65
2023/09/30 07:06:47;;;;;;;2.67;1.80;;;23.10;59.30;;;;;;5092031;28;20177;-65
2023/09/30 07:09:12;;;;;;;3.63;1.93;;;23.10;59.30;;;;;;5091552;28;20418;-66
2023/09/30 07:11:38;;;;;;;3.33;1.97;;;23.10;59.30;;;;;;5091740;28;20261;-66
2023/09/30 07:14:04;;;;;;;4.70;2.10;;;23.10;59.40;;;;;;5091646;28;20648;-64
2023/09/30 07:16:30;;;;;;;2.13;1.70;;;23.10;59.30;;;;;;5090323;28;20658;-67
2023/09/30 07:18:56;;;;;;;2.90;2.47;;;23.10;59.30;;;;;;5091566;28;20415;-68
2023/09/30 07:21:21;;;;;;;2.70;1.83;;;23.10;59.30;;;;;;5091457;28;20204;-67
2023/09/30 07:23:48;;;;;;;5.43;2.73;;;23.10;59.30;;;;;;5091440;28;20244;-67
2023/09/30 07:26:14;;;;;;;3.27;2.13;;;23.10;59.40;;;;;;5091534;28;20169;-66
2023/09/30 07:28:40;;;;;;;3.00;1.80;;;23.10;59.30;;;;;;5091488;28;20502;-67
2023/09/30 07:31:06;;;;;;;3.33;1.80;;;23.10;59.30;;;;;;5091251;28;20534;-67
2023/09/30 07:33:32;;;;;;;3.03;1.63;;;23.10;59.40;;;;;;5091415;28;20209;-66
2023/09/30 07:35:57;;;;;;;2.87;1.90;;;23.10;59.40;;;;;;5091380;28;20435;-65
2023/09/30 07:38:23;;;;;;;3.17;1.50;;;23.10;59.40;;;;;;5090937;28;20260;-66
2023/09/30 07:40:49;;;;;;;3.47;1.93;;;23.10;59.40;;;;;;5091205;28;20173;-67
2023/09/30 07:43:15;;;;;;;5.00;2.20;;;23.00;59.30;;;;;;5091241;28;20189;-66
2023/09/30 07:45:40;;;;;;;4.63;2.00;;;23.10;59.40;;;;;;5091147;28;20189;-66
2023/09/30 07:48:09;;;;;;;3.70;2.10;;;23.10;59.30;;;;;;5091205;28;20411;-65
2023/09/30 07:50:39;;;;;;;3.63;2.77;;;23.10;59.30;;;;;;5091023;28;20555;-68
2023/09/30 07:53:04;;;;;;;5.73;1.80;;;23.10;59.30;;;;;;5091193;28;20847;-67
2023/09/30 07:55:30;;;;;;;4.37;2.73;;;23.10;59.30;;;;;;5091016;28;20403;-66
2023/09/30 07:57:59;;;;;;;4.97;2.47;;;23.10;59.30;;;;;;5090994;28;20570;-66
2023/09/30 08:00:25;;;;;;;4.10;2.30;;;23.10;59.30;;;;;;5091063;28;20184;-67
2023/09/30 08:02:51;;;;;;;3.40;2.17;;;23.10;59.30;;;;;;5090990;28;20955;-65
2023/09/30 08:05:16;;;;;;;3.10;2.17;;;23.10;59.30;;;;;;5091035;28;20161;-66
2023/09/30 08:07:42;;;;;;;3.80;1.47;;;23.10;59.30;;;;;;5090682;28;20408;-66
2023/09/30 08:10:13;;;;;;;3.97;1.87;;;23.10;59.20;;;;;;5090946;28;20197;-66
2023/09/30 08:12:39;;;;;;;2.80;1.63;;;23.10;59.30;;;;;;5090991;28;20190;-67
2023/09/30 08:15:06;;;;;;;3.30;2.00;;;23.10;59.30;;;;;;5090828;28;20415;-66
2023/09/30 08:17:32;;;;;;;3.53;1.90;;;23.10;59.30;;;;;;5091708;28;20396;-66
2023/09/30 08:19:57;;;;;;;2.40;1.70;;;23.10;59.30;;;;;;5091904;28;20807;-66
2023/09/30 08:22:27;;;;;;;2.40;1.97;;;23.10;59.30;;;;;;5092710;28;20442;-66
2023/09/30 08:24:53;;;;;;;3.90;2.00;;;23.10;59.20;;;;;;5092880;28;20226;-66
2023/09/30 08:27:19;;;;;;;3.03;1.70;;;23.10;59.20;;;;;;5092152;28;20427;-66
2023/09/30 08:29:44;;;;;;;2.70;2.10;;;23.10;59.20;;;;;;5092352;28;20501;-66
2023/09/30 08:32:10;;;;;;;2.80;1.77;;;23.10;59.20;;;;;;5092265;28;20170;-65
2023/09/30 08:34:36;;;;;;;3.00;2.20;;;23.20;59.30;;;;;;5091882;28;20197;-65
2023/09/30 08:37:01;;;;;;;2.80;2.00;;;23.10;59.20;;;;;;5092310;28;20244;-65
2023/09/30 08:39:28;;;;;;;4.47;2.20;;;23.10;59.20;;;;;;5092209;28;20161;-66
2023/09/30 08:41:56;;;;;;;3.40;2.00;;;23.10;59.20;;;;;;5091921;28;20192;-66
2023/09/30 08:44:21;;;;;;;3.87;1.80;;;23.20;59.30;;;;;;5092403;28;20462;-65
2023/09/30 08:46:48;;;;;;;3.43;1.70;;;23.20;59.30;;;;;;5091993;28;20404;-65
2023/09/30 08:49:15;;;;;;;4.63;2.07;;;23.20;59.30;;;;;;5091684;28;20190;-65
2023/09/30 08:51:42;;;;;;;5.90;2.57;;;23.20;59.30;;;;;;5092707;28;20992;-66
2023/09/30 08:54:07;;;;;;;2.73;1.67;;;23.20;59.30;;;;;;5092482;28;20420;-65
2023/09/30 08:56:33;;;;;;;3.17;2.23;;;23.20;59.30;;;;;;5092081;28;20406;-67
2023/09/30 08:59:01;;;;;;;5.10;1.90;;;23.20;59.30;;;;;;5092009;28;20170;-65
2023/09/30 09:01:28;;;;;;;2.60;1.83;;;23.20;59.30;;;;;;5092216;28;20611;-67
2023/09/30 09:03:55;;;;;;;2.47;1.80;;;23.20;59.80;;;;;;5091923;28;20956;-67
2023/09/30 09:06:22;;;;;;;3.10;1.90;;;23.20;59.30;;;;;;5091943;28;20403;-66
2023/09/30 09:08:48;;;;;;;3.87;2.40;;;23.20;59.30;;;;;;5091981;28;20800;-67
2023/09/30 09:11:17;;;;;;;3.20;2.60;;;23.10;59.20;;;;;;5092085;28;20447;-64
2023/09/30 09:13:55;;;;;;;3.60;1.87;;;23.20;59.30;;;;;;5091763;28;20447;-66
2023/09/30 09:16:22;;;;;;;2.40;1.70;;;23.20;59.30;;;;;;5091781;28;20387;-67
2023/09/30 09:18:49;;;;;;;3.50;1.70;;;23.20;59.30;;;;;;5091855;28;20857;-66
2023/09/30 09:21:17;;;;;;;2.60;2.03;;;23.20;59.30;;;;;;5095246;28;20994;-65
2023/09/30 09:23:45;;;;;;;3.23;1.70;;;23.20;59.30;;;;;;5095235;28;20439;-66
2023/09/30 09:26:27;;;;;;;2.97;1.90;;;23.20;59.30;;;;;;5095232;28;20407;-66
2023/09/30 09:29:01;;;;;;;1.90;1.70;;;23.20;59.30;;;;;;5095568;28;20864;-66
2023/09/30 09:31:28;;;;;;;3.27;1.87;;;23.20;59.30;;;;;;5095450;28;20891;-66
2023/09/30 09:33:54;;;;;;;2.40;1.67;;;23.20;59.30;;;;;;5094078;28;20448;-66
2023/09/30 09:36:20;;;;;;;3.30;1.90;;;23.20;59.30;;;;;;5095334;28;20419;-67
2023/09/30 09:38:53;;;;;;;3.60;2.03;;;23.20;59.30;;;;;;5095177;28;20230;-66
2023/09/30 09:41:19;;;;;;;2.50;1.70;;;23.20;59.30;;;;;;5094888;28;20411;-66
2023/09/30 09:43:49;;;;;;;2.70;2.07;;;23.20;59.30;;;;;;5095013;28;20459;-67
2023/09/30 09:46:16;;;;;;;3.60;2.10;;;23.20;59.30;;;;;;5097633;28;20418;-67
2023/09/30 09:48:42;;;;;;;6.57;2.00;;;23.20;59.30;;;;;;5097134;28;20446;-66
2023/09/30 09:51:10;;;;;;;3.57;2.30;;;23.20;59.30;;;;;;5096642;28;20490;-66
2023/09/30 09:53:39;;;;;;;2.63;1.70;;;23.20;59.20;;;;;;5096742;28;20796;-65
2023/09/30 09:56:09;;;;;;;3.53;1.90;;;23.20;59.30;;;;;;5096841;28;20499;-66
2023/09/30 09:58:38;;;;;;;2.90;1.70;;;23.20;59.20;;;;;;5094876;28;20776;-66
2023/09/30 10:01:06;;;;;;;2.53;1.87;;;23.20;59.20;;;;;;5094738;28;20412;-68
2023/09/30 10:03:32;;;;;;;2.60;2.40;;;23.20;59.20;;;;;;5093620;28;20447;-63
2023/09/30 10:05:58;;;;;;;3.80;2.03;;;23.20;59.20;;;;;;5093184;28;21002;-65
2023/09/30 10:08:33;;;;;;;3.57;2.37;;;23.20;59.20;;;;;;5093068;28;20461;-65
2023/09/30 10:10:59;;;;;;;3.10;1.83;;;23.20;59.20;;;;;;5092992;28;20462;-66
2023/09/30 10:13:50;;;;;;;2.83;1.77;;;23.20;59.80;;;;;;5092873;28;20419;-66
2023/09/30 10:16:34;;;;;;;3.67;1.90;;;23.20;59.20;;;;;;5092826;28;20399;-66
2023/09/30 10:19:22;;;;;;;2.10;1.80;;;23.20;59.20;;;;;;5093241;28;20400;-66
2023/09/30 10:22:21;;;;;;;2.80;1.73;;;23.20;59.20;;;;;;5092448;28;20859;-65
2023/09/30 10:24:49;;;;;;;2.07;1.60;;;23.20;59.20;;;;;;5093785;28;20498;-67
2023/09/30 10:27:33;;;;;;;3.63;1.63;;;23.20;59.20;;;;;;5093503;28;20404;-67
2023/09/30 10:30:01;;;;;;;3.03;1.90;;;23.20;59.20;;;;;;5094509;28;20504;-65
2023/09/30 10:32:56;;;;;;;3.70;1.80;;;23.20;59.20;;;;;;5094624;28;20502;-65
2023/09/30 10:35:31;;;;;;;2.93;1.60;;;23.20;59.20;;;;;;5092445;28;20411;-65
2023/09/30 10:38:21;;;;;;;2.27;1.73;;;23.20;59.20;;;;;;5092665;28;20407;-65
2023/09/30 10:40:47;;;;;;;3.33;1.83;;;23.20;59.20;;;;;;5092389;28;20443;-64
2023/09/30 10:43:35;;;;;;;3.67;2.00;;;23.20;59.20;;;;;;5092265;28;20435;-64
2023/09/30 10:46:01;;;;;;;3.47;1.90;;;23.20;59.20;;;;;;5092744;28;20892;-65
2023/09/30 10:48:48;;;;;;;2.50;1.73;;;23.20;59.10;;;;;;5092181;28;20412;-66
2023/09/30 10:51:20;;;;;;;2.50;1.93;;;23.20;59.10;;;;;;5093393;28;20479;-61
2023/09/30 10:53:57;;;;;;;1.70;1.40;;;23.20;59.10;;;;;;5092093;28;20485;-66
2023/09/30 10:56:23;;;;;;;3.40;2.00;;;23.20;59.10;;;;;;5092140;28;20402;-63
2023/09/30 10:58:51;;;;;;;2.67;1.87;;;23.20;59.00;;;;;;5092059;28;20490;-65
2023/09/30 11:01:22;;;;;;;4.47;2.20;;;23.20;59.00;;;;;;5091715;28;20503;-65
2023/09/30 11:03:51;;;;;;;2.90;1.97;;;23.20;59.60;;;;;;5091891;28;20438;-66
2023/09/30 11:06:21;;;;;;;3.60;1.50;;;23.20;59.00;;;;;;5092059;28;20412;-66
2023/09/30 11:09:00;;;;;;;2.63;1.80;;;23.20;59.00;;;;;;5092880;28;20792;-65
2023/09/30 11:11:55;;;;;;;4.37;1.60;;;23.20;59.00;;;;;;5092716;28;20451;-66
2023/09/30 11:14:29;;;;;;;3.57;2.00;;;23.20;58.90;;;;;;5082908;28;20451;-65
2023/09/30 11:17:05;;;;;;;5.53;1.80;;;23.20;58.60;;;;;;5091773;28;20407;-67
2023/09/30 11:19:47;;;;;;;6.03;2.27;;;23.20;58.80;;;;;;5091573;28;20445;-68
2023/09/30 11:22:13;;;;;;;2.13;1.60;;;23.20;58.80;;;;;;5091530;28;20422;-67
2023/09/30 11:24:39;;;;;;;1.83;1.67;;;23.20;58.90;;;;;;5091327;28;20430;-67
2023/09/30 11:27:05;;;;;;;2.47;1.80;;;23.20;58.80;;;;;;5091512;28;20446;-67
2023/09/30 11:29:30;;;;;;;2.67;1.80;;;23.20;58.80;;;;;;5091566;28;20638;-67
2023/09/30 11:31:57;;;;;;;2.70;1.67;;;23.20;58.80;;;;;;5091437;28;20180;-65
2023/09/30 11:34:34;;;;;;;3.27;1.83;;;23.20;58.80;;;;;;5089952;28;20197;-67
2023/09/30 11:37:01;;;;;;;3.13;1.90;;;23.20;58.80;;;;;;5091407;28;20376;-67
2023/09/30 11:39:28;;;;;;;4.10;2.00;;;23.20;58.80;;;;;;5091278;28;20462;-67
2023/09/30 11:41:56;;;;;;;5.00;2.03;;;23.20;58.80;;;;;;5091071;28;20408;-68
2023/09/30 11:44:23;;;;;;;2.93;1.90;;;23.20;58.80;;;;;;5090990;28;20462;-67
2023/09/30 11:46:55;;;;;;;2.80;1.50;;;23.20;58.80;;;;;;5091171;28;20395;-70
2023/09/30 11:49:32;;;;;;;4.53;2.70;;;23.20;58.80;;;;;;5091210;28;20376;-67
2023/09/30 11:51:59;;;;;;;3.60;2.20;;;23.20;58.80;;;;;;5091010;28;20384;-67
2023/09/30 11:54:41;;;;;;;5.43;1.97;;;23.20;58.80;;;;;;5091111;28;20415;-68
2023/09/30 11:57:10;;;;;;;3.27;2.43;;;23.20;58.70;;;;;;5091100;28;20816;-69
2023/09/30 11:59:41;;;;;;;2.57;1.93;;;23.20;58.70;;;;;;5091010;28;20406;-68
2023/09/30 12:02:08;;;;;;;2.57;1.97;;;23.20;59.20;;;;;;5090984;28;20420;-69
2023/09/30 12:04:35;;;;;;;2.80;2.10;;;23.20;58.60;;;;;;5090883;28;20427;-68
2023/09/30 12:07:01;;;;;;;2.50;1.80;;;23.20;58.60;;;;;;5090932;28;20432;-68
2023/09/30 12:09:28;;;;;;;2.70;1.70;;;23.20;58.50;;;;;;5090813;28;20973;-68
2023/09/30 12:11:54;;;;;;;4.20;1.83;;;23.20;58.40;;;;;;5090873;28;20664;-68
2023/09/30 12:14:23;;;;;;;2.57;2.30;;;23.10;58.30;;;;;;5090732;28;20420;-67
2023/09/30 12:16:49;;;;;;;6.50;2.07;;;23.20;58.30;;;;;;5090808;28;20404;-69
2023/09/30 12:19:15;;;;;;;1.93;1.83;;;23.20;58.30;;;;;;5090909;28;20411;-69
2023/09/30 12:21:42;;;;;;;2.13;1.80;;;23.20;58.20;;;;;;5090794;28;20420;-67
2023/09/30 12:24:09;;;;;;;3.50;1.90;;;23.20;58.30;;;;;;5090602;28;20427;-68
2023/09/30 12:26:36;;;;;;;3.43;2.40;;;23.20;58.30;;;;;;5090699;28;20411;-67
2023/09/30 12:29:03;;;;;;;2.00;1.77;;;23.10;58.20;;;;;;5090731;28;20411;-67
2023/09/30 12:31:28;;;;;;;3.60;2.30;;;23.10;58.10;;;;;;5090622;28;20459;-68
2023/09/30 12:33:54;;;;;;;4.97;2.13;;;23.10;58.20;;;;;;5090553;28;20431;-68
2023/09/30 12:36:21;;;;;;;3.77;2.20;;;23.10;58.30;;;;;;5090627;28;20173;-68
2023/09/30 12:38:47;;;;;;;2.33;2.07;;;23.10;58.30;;;;;;5090676;28;20177;-67
2023/09/30 12:41:13;;;;;;;2.30;1.80;;;23.10;58.20;;;;;;5090615;28;21303;-68
2023/09/30 12:43:38;;;;;;;2.77;1.90;;;23.10;58.20;;;;;;5089058;28;20436;-67
2023/09/30 12:46:07;;;;;;;1.77;1.63;;;23.10;58.20;;;;;;5090470;28;20178;-68
2023/09/30 12:48:33;;;;;;;3.47;2.37;;;23.10;58.10;;;;;;5090528;28;20178;-68